Time;durP1;ratioP1;P1;durP2;ratioP2;P2;SDS_P1;SDS_P2;PMS_P1;PMS_P2;Temp;Humidity;BMP_temperature;BMP_pressure;BME280_temperature;BME280_humidity;BME280_pressure;Samples;Min_cycle;Max_cycle;Signal;HPM_P1;HPM_P2
2023/05/20 00:00:03;;;;;;;14.85;9.45;;;;;;;;;;5053930;28;20032;-77
2023/05/20 00:02:28;;;;;;;18.05;10.27;;;;;;;;;;5053812;28;20078;-77
2023/05/20 00:04:54;;;;;;;14.03;9.40;;;;;;;;;;5036440;28;20044;-77
2023/05/20 00:07:19;;;;;;;16.67;10.13;;;;;;;;;;5036879;28;20266;-77
2023/05/20 00:09:45;;;;;;;16.37;10.23;;;;;;;;;;5054401;28;20025;-75
2023/05/20 00:12:10;;;;;;;16.83;10.27;;;;;;;;;;5057508;28;20250;-76
2023/05/20 00:14:35;;;;;;;16.65;10.05;;;;;;;;;;5052917;28;20268;-77
2023/05/20 00:17:00;;;;;;;14.95;9.98;;;;;;;;;;5053188;28;20055;-77
2023/05/20 00:19:25;;;;;;;14.90;8.50;;;;;;;;;;5053038;28;20029;-76
2023/05/20 00:21:51;;;;;;;16.10;9.10;;;;;;;;;;5052593;28;20021;-77
2023/05/20 00:24:16;;;;;;;17.25;9.65;;;;;;;;;;5052288;28;20268;-77
2023/05/20 00:26:41;;;;;;;13.27;9.60;;;;;;;;;;5051757;28;20079;-76
2023/05/20 00:29:06;;;;;;;15.20;9.90;;;;;;;;;;5053549;28;20286;-78
2023/05/20 00:31:32;;;;;;;14.40;9.47;;;;;;;;;;5057518;28;20316;-77
2023/05/20 00:33:57;;;;;;;14.70;9.60;;;;;;;;;;5061095;28;20262;-77
2023/05/20 00:36:22;;;;;;;13.23;8.83;;;;;;;;;;5059155;28;20501;-77
2023/05/20 00:38:47;;;;;;;13.80;9.20;;;;;;;;;;5044324;28;20270;-77
2023/05/20 00:41:12;;;;;;;17.07;9.23;;;;;;;;;;5053736;28;20277;-77
2023/05/20 00:43:38;;;;;;;17.60;9.63;;;;;;;;;;5052621;28;20325;-77
2023/05/20 00:46:03;;;;;;;15.63;9.80;;;;;;;;;;5052641;28;20292;-77
2023/05/20 00:48:38;;;;;;;14.57;9.77;;;;;;;;;;5036891;28;20391;-77
2023/05/20 00:51:03;;;;;;;15.40;9.60;;;;;;;;;;5057312;28;20024;-77
2023/05/20 00:53:29;;;;;;;16.42;9.57;;;;;;;;;;5052442;28;20116;-77
2023/05/20 00:55:54;;;;;;;16.25;10.55;;;;;;;;;;5052797;28;20431;-77
2023/05/20 00:58:19;;;;;;;17.33;10.30;;;;;;;;;;5034709;28;20392;-77
2023/05/20 01:00:45;;;;;;;16.83;10.70;;;;;;;;;;5052718;28;20074;-76
2023/05/20 01:03:10;;;;;;;18.83;9.88;;;;;;;;;;5054787;28;20262;-77
2023/05/20 01:05:35;;;;;;;15.70;10.23;;;;;;;;;;5056812;28;20492;-76
2023/05/20 01:08:01;;;;;;;15.10;9.73;;;;;;;;;;5038917;28;20017;-77
2023/05/20 01:10:28;;;;;;;15.25;9.80;;;;;;;;;;5058455;28;20258;-77
2023/05/20 01:12:57;;;;;;;15.60;9.90;;;;;;;;;;5057722;28;20021;-77
2023/05/20 01:15:26;;;;;;;15.45;9.68;;;;;;;;;;5056472;28;20158;-76
2023/05/20 01:17:57;;;;;;;18.98;10.32;;;;;;;;;;5038457;28;20074;-76
2023/05/20 01:20:23;;;;;;;16.58;10.55;;;;;;;;;;5055689;28;20040;-77
2023/05/20 01:22:53;;;;;;;17.90;10.82;;;;;;;;;;5037882;28;20079;-76
2023/05/20 01:25:18;;;;;;;17.17;10.70;;;;;;;;;;5055843;28;20434;-77
2023/05/20 01:27:44;;;;;;;17.73;11.07;;;;;;;;;;5055748;28;20021;-76
2023/05/20 01:30:10;;;;;;;16.88;10.05;;;;;;;;;;5055758;28;20029;-77
2023/05/20 01:32:43;;;;;;;14.80;10.35;;;;;;;;;;5055789;28;20496;-77
2023/05/20 01:35:09;;;;;;;17.83;10.18;;;;;;;;;;5055620;28;20028;-77
2023/05/20 01:37:38;;;;;;;17.70;10.63;;;;;;;;;;5055559;28;20462;-77
2023/05/20 01:40:08;;;;;;;15.27;9.85;;;;;;;;;;5037442;28;20442;-77
2023/05/20 01:42:35;;;;;;;16.90;10.45;;;;;;;;;;5056263;28;20024;-76
2023/05/20 01:45:01;;;;;;;14.88;10.15;;;;;;;;;;5055420;28;20051;-77
2023/05/20 01:47:26;;;;;;;17.98;9.88;;;;;;;;;;5057012;28;20025;-77
2023/05/20 01:49:53;;;;;;;19.92;10.18;;;;;;;;;;5055974;28;20366;-76
2023/05/20 01:52:19;;;;;;;16.17;9.98;;;;;;;;;;5056110;28;20048;-77
2023/05/20 01:54:49;;;;;;;18.15;10.90;;;;;;;;;;5056904;28;20078;-75
2023/05/20 01:57:15;;;;;;;15.63;10.18;;;;;;;;;;5055775;28;20163;-76
2023/05/20 01:59:40;;;;;;;16.92;10.30;;;;;;;;;;5055408;28;20052;-77
2023/05/20 02:02:05;;;;;;;15.87;9.77;;;;;;;;;;5056985;28;20480;-77
2023/05/20 02:04:30;;;;;;;16.77;10.93;;;;;;;;;;5038011;28;20669;-76
2023/05/20 02:06:55;;;;;;;17.13;10.97;;;;;;;;;;5056984;28;20598;-77
2023/05/20 02:09:21;;;;;;;14.93;9.77;;;;;;;;;;5058720;28;20680;-77
2023/05/20 02:11:46;;;;;;;16.13;10.10;;;;;;;;;;5055017;28;20610;-75
2023/05/20 02:14:11;;;;;;;15.60;10.60;;;;;;;;;;5036107;28;20699;-77
2023/05/20 02:16:36;;;;;;;15.10;10.17;;;;;;;;;;5057178;28;20067;-77
2023/05/20 02:19:02;;;;;;;16.23;10.40;;;;;;;;;;5055601;28;20246;-77
2023/05/20 02:21:27;;;;;;;18.00;10.97;;;;;;;;;;5055004;28;20025;-77
2023/05/20 02:23:52;;;;;;;16.50;10.23;;;;;;;;;;5036793;28;20253;-76
2023/05/20 02:26:19;;;;;;;18.43;10.47;;;;;;;;;;5054854;28;20276;-77
2023/05/20 02:28:45;;;;;;;19.27;10.63;;;;;;;;;;5054915;28;20281;-76
2023/05/20 02:31:11;;;;;;;16.73;10.68;;;;;;;;;;5057063;28;20071;-77
2023/05/20 02:33:37;;;;;;;16.05;10.63;;;;;;;;;;5054853;28;20033;-77
2023/05/20 02:36:02;;;;;;;16.73;10.60;;;;;;;;;;5058317;28;20016;-77
2023/05/20 02:38:28;;;;;;;16.95;10.32;;;;;;;;;;5058908;28;20084;-77
2023/05/20 02:40:54;;;;;;;18.17;10.65;;;;;;;;;;5059200;28;20025;-77
2023/05/20 02:43:19;;;;;;;17.08;10.93;;;;;;;;;;5058747;28;20069;-77
2023/05/20 02:45:45;;;;;;;16.95;9.88;;;;;;;;;;5057636;28;20036;-77
2023/05/20 02:48:10;;;;;;;15.25;10.23;;;;;;;;;;5057135;28;20028;-78
2023/05/20 02:50:38;;;;;;;18.47;10.43;;;;;;;;;;5045534;28;20039;-77
2023/05/20 02:53:03;;;;;;;17.10;11.07;;;;;;;;;;5063257;28;20272;-78
2023/05/20 02:55:28;;;;;;;21.03;11.37;;;;;;;;;;5058673;28;20556;-78
2023/05/20 02:57:53;;;;;;;15.40;10.70;;;;;;;;;;5057766;28;20629;-78
2023/05/20 03:00:19;;;;;;;16.70;10.68;;;;;;;;;;5057486;28;20265;-77
2023/05/20 03:02:44;;;;;;;17.60;10.93;;;;;;;;;;5057431;28;20107;-78
2023/05/20 03:05:09;;;;;;;20.05;11.30;;;;;;;;;;5056625;28;20285;-77
2023/05/20 03:07:35;;;;;;;19.70;11.25;;;;;;;;;;5058530;28;20495;-77
2023/05/20 03:10:01;;;;;;;20.58;11.25;;;;;;;;;;5057681;28;20442;-77
2023/05/20 03:12:27;;;;;;;16.35;10.90;;;;;;;;;;5055195;28;20036;-76
2023/05/20 03:14:54;;;;;;;18.30;11.15;;;;;;;;;;5053850;28;20032;-77
2023/05/20 03:17:21;;;;;;;16.77;11.25;;;;;;;;;;5056935;28;20156;-78
2023/05/20 03:19:46;;;;;;;19.38;11.18;;;;;;;;;;5059907;28;20143;-77
2023/05/20 03:22:12;;;;;;;17.05;11.18;;;;;;;;;;5038917;28;20016;-77
2023/05/20 03:24:37;;;;;;;18.08;11.18;;;;;;;;;;5055128;28;20048;-77
2023/05/20 03:27:03;;;;;;;19.88;11.63;;;;;;;;;;5056991;28;20021;-76
2023/05/20 03:29:28;;;;;;;15.68;11.30;;;;;;;;;;5057038;28;20032;-78
2023/05/20 03:31:53;;;;;;;16.93;10.73;;;;;;;;;;5059632;28;20033;-78
2023/05/20 03:34:18;;;;;;;20.33;11.83;;;;;;;;;;5059953;28;20269;-77
2023/05/20 03:36:45;;;;;;;17.73;10.93;;;;;;;;;;5057716;28;20257;-78
2023/05/20 03:39:10;;;;;;;18.08;11.55;;;;;;;;;;5054253;28;20329;-77
2023/05/20 03:41:36;;;;;;;20.48;11.90;;;;;;;;;;5054027;28;20049;-77
2023/05/20 03:44:02;;;;;;;21.00;11.75;;;;;;;;;;5039643;28;20099;-77
2023/05/20 03:46:27;;;;;;;18.25;11.57;;;;;;;;;;5060580;28;20056;-77
2023/05/20 03:48:52;;;;;;;18.97;11.93;;;;;;;;;;5055568;28;20087;-77
2023/05/20 03:51:17;;;;;;;17.77;11.02;;;;;;;;;;5053809;28;20262;-78
2023/05/20 03:53:42;;;;;;;21.80;11.40;;;;;;;;;;5041245;28;20029;-78
2023/05/20 03:56:08;;;;;;;17.17;11.77;;;;;;;;;;5053620;28;20262;-79
2023/05/20 03:58:34;;;;;;;19.80;12.20;;;;;;;;;;5033726;28;20262;-78
2023/05/20 04:00:59;;;;;;;20.45;11.27;;;;;;;;;;5053058;28;20261;-77
2023/05/20 04:03:24;;;;;;;18.87;11.23;;;;;;;;;;5037670;28;20047;-77
2023/05/20 04:05:49;;;;;;;19.95;12.13;;;;;;;;;;5055975;28;20257;-77
2023/05/20 04:08:17;;;;;;;17.53;11.40;;;;;;;;;;5053121;28;20021;-77
2023/05/20 04:10:43;;;;;;;19.73;11.25;;;;;;;;;;5052863;28;20343;-77
2023/05/20 04:13:10;;;;;;;18.83;11.30;;;;;;;;;;5052753;28;20037;-77
2023/05/20 04:15:35;;;;;;;19.20;11.63;;;;;;;;;;5035023;28;20116;-77
2023/05/20 04:18:01;;;;;;;20.02;12.65;;;;;;;;;;5053060;28;20061;-77
2023/05/20 04:20:26;;;;;;;17.48;11.75;;;;;;;;;;5053373;28;20029;-77
2023/05/20 04:22:52;;;;;;;20.93;12.33;;;;;;;;;;5053372;28;20025;-77
2023/05/20 04:25:18;;;;;;;20.25;11.80;;;;;;;;;;5053429;28;20293;-77
2023/05/20 04:27:43;;;;;;;18.45;11.50;;;;;;;;;;5052917;28;20059;-77
2023/05/20 04:30:09;;;;;;;17.65;11.43;;;;;;;;;;5052786;28;20381;-76
2023/05/20 04:32:34;;;;;;;18.17;11.90;;;;;;;;;;5056151;28;20025;-77
2023/05/20 04:35:01;;;;;;;22.33;12.13;;;;;;;;;;5060354;28;20021;-77
2023/05/20 04:37:27;;;;;;;18.95;11.75;;;;;;;;;;5056314;28;20025;-77
2023/05/20 04:39:52;;;;;;;19.75;11.95;;;;;;;;;;5056757;28;20021;-76
2023/05/20 04:42:19;;;;;;;21.10;11.80;;;;;;;;;;5057278;28;20039;-77
2023/05/20 04:44:47;;;;;;;17.92;11.35;;;;;;;;;;5060554;28;20124;-76
2023/05/20 04:47:13;;;;;;;18.90;12.02;;;;;;;;;;5058503;28;20035;-77
2023/05/20 04:49:38;;;;;;;18.00;11.50;;;;;;;;;;5041323;28;20029;-76
2023/05/20 04:52:04;;;;;;;20.75;11.93;;;;;;;;;;5058480;28;20025;-77
2023/05/20 04:54:29;;;;;;;20.33;12.60;;;;;;;;;;5057276;28;20067;-76
2023/05/20 04:56:55;;;;;;;15.43;10.93;;;;;;;;;;5041879;28;20020;-77
2023/05/20 04:59:20;;;;;;;19.27;11.15;;;;;;;;;;5041644;28;20071;-77
2023/05/20 05:01:45;;;;;;;18.30;11.43;;;;;;;;;;5056733;28;20033;-77
2023/05/20 05:04:11;;;;;;;20.53;11.63;;;;;;;;;;5039280;28;20026;-77
2023/05/20 05:06:36;;;;;;;19.57;12.20;;;;;;;;;;5058180;28;20261;-77
2023/05/20 05:09:01;;;;;;;19.83;11.90;;;;;;;;;;5056399;28;20270;-76
2023/05/20 05:11:26;;;;;;;18.30;11.73;;;;;;;;;;5056639;28;20793;-76
2023/05/20 05:13:53;;;;;;;17.67;11.63;;;;;;;;;;5056479;28;20348;-76
2023/05/20 05:16:18;;;;;;;18.88;12.15;;;;;;;;;;5056766;28;20756;-76
2023/05/20 05:18:43;;;;;;;20.33;11.80;;;;;;;;;;5038468;28;20104;-76
2023/05/20 05:21:09;;;;;;;19.47;12.83;;;;;;;;;;5056503;28;20269;-77
2023/05/20 05:23:34;;;;;;;22.08;12.20;;;;;;;;;;5056321;28;20265;-76
2023/05/20 05:25:59;;;;;;;21.80;12.98;;;;;;;;;;5056418;28;20032;-75
2023/05/20 05:28:25;;;;;;;19.70;12.38;;;;;;;;;;5055751;28;20025;-76
2023/05/20 05:30:52;;;;;;;21.23;12.48;;;;;;;;;;5055908;28;20021;-76
2023/05/20 05:33:17;;;;;;;24.13;12.20;;;;;;;;;;5055699;28;20029;-78
2023/05/20 05:35:43;;;;;;;20.27;12.60;;;;;;;;;;5055734;28;20032;-76
2023/05/20 05:38:08;;;;;;;21.15;13.48;;;;;;;;;;5056210;28;20250;-76
2023/05/20 05:40:34;;;;;;;21.53;12.77;;;;;;;;;;5037606;28;20033;-76
2023/05/20 05:42:59;;;;;;;20.38;12.50;;;;;;;;;;5038048;28;20289;-77
2023/05/20 05:45:24;;;;;;;19.93;12.97;;;;;;;;;;5056211;28;20079;-76
2023/05/20 05:47:50;;;;;;;23.73;12.80;;;;;;;;;;5055850;28;20258;-76
2023/05/20 05:50:15;;;;;;;21.95;13.10;;;;;;;;;;5055467;28;20331;-76
2023/05/20 05:52:40;;;;;;;21.20;13.10;;;;;;;;;;5056025;28;20488;-76
2023/05/20 05:55:07;;;;;;;22.30;12.50;;;;;;;;;;5055865;28;20040;-77
2023/05/20 05:57:32;;;;;;;24.85;13.18;;;;;;;;;;5055338;28;20092;-76
2023/05/20 05:59:57;;;;;;;18.30;11.20;;;;;;;;;;5037135;28;20025;-75
2023/05/20 06:02:22;;;;;;;22.20;13.73;;;;;;;;;;5055640;28;20379;-75
2023/05/20 06:04:48;;;;;;;21.65;14.07;;;;;;;;;;5055043;28;20278;-76
2023/05/20 06:07:13;;;;;;;19.98;13.45;;;;;;;;;;5055544;28;20032;-76
2023/05/20 06:09:38;;;;;;;23.00;13.43;;;;;;;;;;5055377;28;20503;-76
2023/05/20 06:12:04;;;;;;;24.55;13.40;;;;;;;;;;5055352;28;20451;-76
2023/05/20 06:14:30;;;;;;;22.73;13.40;;;;;;;;;;5055343;28;20039;-76
2023/05/20 06:16:55;;;;;;;20.52;12.98;;;;;;;;;;5037021;28;20060;-76
2023/05/20 06:19:21;;;;;;;20.67;12.93;;;;;;;;;;5055105;28;20021;-76
2023/05/20 06:21:46;;;;;;;24.17;13.97;;;;;;;;;;5054824;28;20040;-76
2023/05/20 06:24:11;;;;;;;23.10;13.50;;;;;;;;;;5054650;28;20817;-76
2023/05/20 06:26:36;;;;;;;23.30;14.60;;;;;;;;;;5054601;28;20747;-76
2023/05/20 06:29:02;;;;;;;20.63;12.93;;;;;;;;;;5055026;28;20274;-77
2023/05/20 06:31:28;;;;;;;21.60;12.75;;;;;;;;;;5055227;28;20032;-76
2023/05/20 06:33:54;;;;;;;15.45;9.65;;;;;;;;;;5054660;28;20016;-76
2023/05/20 06:36:19;;;;;;;16.60;10.23;;;;;;;;;;5054598;28;20373;-76
2023/05/20 06:38:45;;;;;;;20.70;13.07;;;;;;;;;;5054715;28;20551;-76
2023/05/20 06:41:10;;;;;;;23.13;12.85;;;;;;;;;;5054687;28;20400;-77
2023/05/20 06:43:36;;;;;;;19.83;12.95;;;;;;;;;;5054610;28;20025;-77
2023/05/20 06:46:01;;;;;;;21.33;12.98;;;;;;;;;;5054676;28;20086;-76
2023/05/20 06:48:26;;;;;;;20.15;12.75;;;;;;;;;;5054478;28;20036;-77
2023/05/20 06:50:51;;;;;;;17.67;11.37;;;;;;;;;;5055764;28;20037;-76
2023/05/20 06:53:16;;;;;;;20.77;11.30;;;;;;;;;;5037902;28;20273;-74
2023/05/20 06:55:42;;;;;;;19.30;11.03;;;;;;;;;;5056891;28;20261;-76
2023/05/20 06:58:10;;;;;;;17.83;10.57;;;;;;;;;;5055693;28;20273;-76
2023/05/20 07:00:35;;;;;;;20.52;12.55;;;;;;;;;;5054767;28;20622;-77
2023/05/20 07:03:00;;;;;;;21.13;11.57;;;;;;;;;;5035931;28;20108;-77
2023/05/20 07:05:27;;;;;;;20.20;12.10;;;;;;;;;;5054164;28;20254;-77
2023/05/20 07:07:53;;;;;;;22.55;12.38;;;;;;;;;;5054684;28;20369;-77
2023/05/20 07:10:18;;;;;;;17.40;11.80;;;;;;;;;;5054439;28;20021;-77
2023/05/20 07:12:43;;;;;;;20.85;12.85;;;;;;;;;;5054704;28;20078;-77
2023/05/20 07:15:09;;;;;;;21.23;12.50;;;;;;;;;;5054546;28;20043;-76
2023/05/20 07:17:34;;;;;;;16.88;11.48;;;;;;;;;;5055323;28;20269;-76
2023/05/20 07:20:00;;;;;;;20.90;13.18;;;;;;;;;;5053188;28;20017;-78
2023/05/20 07:22:25;;;;;;;18.35;12.68;;;;;;;;;;5034781;28;20028;-77
2023/05/20 07:24:50;;;;;;;22.75;12.73;;;;;;;;;;5053160;28;20100;-76
2023/05/20 07:27:15;;;;;;;20.90;11.63;;;;;;;;;;5052205;28;20107;-76
2023/05/20 07:29:41;;;;;;;22.43;13.60;;;;;;;;;;5034062;28;20439;-76
2023/05/20 07:32:08;;;;;;;17.37;11.33;;;;;;;;;;5036903;28;20250;-75
2023/05/20 07:34:33;;;;;;;17.85;11.30;;;;;;;;;;5034187;28;20780;-77
2023/05/20 07:36:58;;;;;;;20.10;13.50;;;;;;;;;;5034511;28;20037;-74
2023/05/20 07:39:23;;;;;;;15.23;8.80;;;;;;;;;;5054145;28;20261;-74
2023/05/20 07:41:49;;;;;;;15.00;10.55;;;;;;;;;;5055402;28;20380;-74
2023/05/20 07:44:14;;;;;;;15.90;10.65;;;;;;;;;;5035566;28;20040;-76
2023/05/20 07:46:43;;;;;;;17.75;12.23;;;;;;;;;;5053780;28;20048;-76
2023/05/20 07:49:08;;;;;;;20.95;13.23;;;;;;;;;;5053088;28;20025;-76
2023/05/20 07:51:34;;;;;;;17.95;12.60;;;;;;;;;;5035051;28;20071;-76
2023/05/20 07:53:59;;;;;;;15.70;10.30;;;;;;;;;;5052822;28;20017;-77
2023/05/20 07:56:24;;;;;;;18.92;13.18;;;;;;;;;;5053097;28;20021;-76
2023/05/20 07:58:59;;;;;;;19.60;13.75;;;;;;;;;;5055319;28;20040;-79
2023/05/20 08:01:25;;;;;;;22.05;12.85;;;;;;;;;;5042457;28;20027;-76
2023/05/20 08:03:51;;;;;;;19.67;12.05;;;;;;;;;;5034938;28;20025;-76
2023/05/20 08:06:19;;;;;;;20.50;12.90;;;;;;;;;;5052972;28;20484;-76
2023/05/20 08:08:45;;;;;;;15.32;10.13;;;;;;;;;;5035176;28;20471;-76
2023/05/20 08:11:10;;;;;;;24.42;13.57;;;;;;;;;;5053053;28;20064;-76
2023/05/20 08:13:35;;;;;;;18.77;10.37;;;;;;;;;;5037884;28;20039;-76
2023/05/20 08:16:04;;;;;;;20.83;12.73;;;;;;;;;;5040033;28;20269;-74
2023/05/20 08:18:31;;;;;;;20.30;10.32;;;;;;;;;;5039533;28;20025;-75
2023/05/20 08:20:57;;;;;;;17.83;10.75;;;;;;;;;;5056953;28;20091;-75
2023/05/20 08:23:23;;;;;;;18.63;11.43;;;;;;;;;;5057000;28;20024;-76
2023/05/20 08:25:48;;;;;;;19.58;11.32;;;;;;;;;;5057156;28;20107;-75
2023/05/20 08:28:13;;;;;;;18.57;12.40;;;;;;;;;;5057104;28;20111;-76
2023/05/20 08:30:38;;;;;;;20.13;12.32;;;;;;;;;;5056645;28;20262;-76
2023/05/20 08:33:04;;;;;;;21.00;13.02;;;;;;;;;;5056731;28;20024;-75
2023/05/20 08:35:29;;;;;;;19.73;10.95;;;;;;;;;;5056692;28;20029;-76
2023/05/20 08:37:54;;;;;;;20.48;12.30;;;;;;;;;;5056586;28;20074;-75
2023/05/20 08:40:20;;;;;;;18.70;11.80;;;;;;;;;;5056323;28;20017;-75
2023/05/20 08:42:48;;;;;;;18.38;11.60;;;;;;;;;;5056637;28;20021;-75
2023/05/20 08:45:18;;;;;;;14.13;8.35;;;;;;;;;;5039018;28;20027;-76
2023/05/20 08:47:44;;;;;;;19.40;12.38;;;;;;;;;;5056766;28;20029;-75
2023/05/20 08:50:11;;;;;;;20.63;12.25;;;;;;;;;;5056759;28;20074;-75
2023/05/20 08:52:42;;;;;;;19.35;12.20;;;;;;;;;;5038546;28;20021;-76
2023/05/20 08:55:10;;;;;;;19.48;10.57;;;;;;;;;;5038713;28;20025;-75
2023/05/20 08:57:36;;;;;;;12.75;7.70;;;;;;;;;;5056395;28;20029;-76
2023/05/20 09:00:08;;;;;;;17.15;10.38;;;;;;;;;;5056309;28;20395;-75
2023/05/20 09:02:37;;;;;;;19.60;12.20;;;;;;;;;;5056821;28;20033;-76
2023/05/20 09:05:03;;;;;;;15.95;11.32;;;;;;;;;;5038620;28;20060;-76
2023/05/20 09:07:29;;;;;;;18.15;11.65;;;;;;;;;;5056270;28;20025;-75
2023/05/20 09:09:54;;;;;;;17.73;10.82;;;;;;;;;;5056339;28;20021;-77
2023/05/20 09:12:20;;;;;;;17.10;10.77;;;;;;;;;;5056115;28;20021;-76
2023/05/20 09:14:46;;;;;;;14.18;8.95;;;;;;;;;;5038155;28;20028;-76
2023/05/20 09:17:11;;;;;;;17.45;10.95;;;;;;;;;;5056255;28;20380;-75
2023/05/20 09:19:37;;;;;;;18.40;11.50;;;;;;;;;;5056062;28;20086;-76
2023/05/20 09:22:03;;;;;;;19.35;11.30;;;;;;;;;;5038231;28;20111;-76
2023/05/20 09:24:29;;;;;;;13.85;7.35;;;;;;;;;;5055468;28;20035;-75
2023/05/20 09:26:55;;;;;;;14.52;7.88;;;;;;;;;;5057349;28;20021;-77
2023/05/20 09:29:20;;;;;;;14.07;7.85;;;;;;;;;;5057489;28;20480;-75
2023/05/20 09:31:48;;;;;;;17.48;11.18;;;;;;;;;;5057370;28;20500;-76
2023/05/20 09:34:14;;;;;;;14.75;7.38;;;;;;;;;;5057471;28;20035;-75
2023/05/20 09:36:42;;;;;;;16.05;9.35;;;;;;;;;;5056874;28;20041;-76
2023/05/20 09:39:17;;;;;;;16.83;9.60;;;;;;;;;;5057181;28;20021;-80
2023/05/20 09:42:01;;;;;;;18.42;9.75;;;;;;;;;;5056344;28;20488;-76
2023/05/20 09:44:28;;;;;;;17.75;10.60;;;;;;;;;;5057210;28;20443;-75
2023/05/20 09:46:55;;;;;;;22.30;11.48;;;;;;;;;;5055418;28;20029;-76
2023/05/20 09:49:22;;;;;;;18.33;11.35;;;;;;;;;;5055501;28;20078;-76
2023/05/20 09:51:48;;;;;;;10.05;7.45;;;;;;;;;;5038386;28;20025;-76
2023/05/20 09:54:14;;;;;;;15.88;10.07;;;;;;;;;;5055375;28;20021;-75
2023/05/20 09:56:40;;;;;;;17.80;10.73;;;;;;;;;;5055801;28;20365;-78
2023/05/20 09:59:06;;;;;;;17.70;10.25;;;;;;;;;;5055428;28;20024;-75
2023/05/20 10:01:32;;;;;;;20.98;11.30;;;;;;;;;;5055051;28;20025;-76
2023/05/20 10:03:58;;;;;;;19.58;11.63;;;;;;;;;;5055670;28;20027;-76
2023/05/20 10:06:42;;;;;;;17.20;10.85;;;;;;;;;;5055000;28;20016;-76
2023/05/20 10:09:07;;;;;;;;;;;;;;;;;;5037432;28;20029;-76
2023/05/20 10:11:43;;;;;;;20.65;9.90;;;;;;;;;;5054832;28;19908;-76
2023/05/20 10:14:28;;;;;;;18.60;10.63;;;;;;;;;;5054828;28;20028;-77
2023/05/20 10:17:16;;;;;;;14.23;9.30;;;;;;;;;;5037958;28;20483;-76
2023/05/20 10:19:42;;;;;;;13.80;8.50;;;;;;;;;;5036900;28;20031;-74
2023/05/20 10:22:09;;;;;;;15.48;10.00;;;;;;;;;;5037237;28;20028;-75
2023/05/20 10:24:42;;;;;;;10.75;8.00;;;;;;;;;;5037021;28;20021;-76
2023/05/20 10:27:09;;;;;;;14.60;9.90;;;;;;;;;;5036908;28;20036;-76
2023/05/20 10:30:05;;;;;;;17.70;10.57;;;;;;;;;;5036744;28;20017;-75
2023/05/20 10:32:32;;;;;;;15.82;9.27;;;;;;;;;;5037877;28;20388;-75
2023/05/20 10:35:03;;;;;;;13.00;8.27;;;;;;;;;;5053455;28;20020;-76
2023/05/20 10:37:41;;;;;;;17.02;9.10;;;;;;;;;;5036382;28;20029;-75
2023/05/20 10:40:08;;;;;;;15.77;8.48;;;;;;;;;;5036117;28;20081;-77
2023/05/20 10:42:33;;;;;;;12.57;7.88;;;;;;;;;;5054289;28;20029;-76
2023/05/20 10:44:58;;;;;;;19.65;10.27;;;;;;;;;;5054286;28;20025;-75
2023/05/20 10:47:27;;;;;;;12.67;8.53;;;;;;;;;;5036488;28;20029;-76
2023/05/20 10:49:52;;;;;;;16.50;9.30;;;;;;;;;;5054180;28;20276;-76
2023/05/20 10:52:18;;;;;;;11.60;7.07;;;;;;;;;;5054256;28;20017;-77
2023/05/20 10:54:53;;;;;;;17.38;9.55;;;;;;;;;;5054452;28;20024;-77
2023/05/20 10:57:19;;;;;;;15.50;9.55;;;;;;;;;;5036179;28;20043;-76
2023/05/20 10:59:46;;;;;;;17.67;8.85;;;;;;;;;;5054235;28;20021;-76
2023/05/20 11:02:16;;;;;;;14.32;9.07;;;;;;;;;;5036091;28;20111;-76
2023/05/20 11:04:43;;;;;;;14.43;7.88;;;;;;;;;;5054064;28;20021;-76
2023/05/20 11:07:08;;;;;;;15.57;8.48;;;;;;;;;;5054170;28;20029;-76
2023/05/20 11:09:34;;;;;;;17.33;10.25;;;;;;;;;;5055115;28;20059;-76
2023/05/20 11:11:59;;;;;;;15.43;9.60;;;;;;;;;;5053992;28;20438;-76
2023/05/20 11:14:27;;;;;;;15.18;8.88;;;;;;;;;;5053734;28;20568;-75
2023/05/20 11:16:55;;;;;;;16.75;10.63;;;;;;;;;;5053718;28;20511;-74
2023/05/20 11:19:20;;;;;;;17.77;10.32;;;;;;;;;;5053855;28;20504;-76
2023/05/20 11:21:46;;;;;;;16.55;10.48;;;;;;;;;;5035844;28;20021;-75
2023/05/20 11:24:12;;;;;;;17.17;9.80;;;;;;;;;;5053515;28;20400;-75
2023/05/20 11:26:39;;;;;;;14.85;8.60;;;;;;;;;;5036040;28;20031;-74
2023/05/20 11:29:05;;;;;;;14.80;9.40;;;;;;;;;;5035627;28;20108;-75
2023/05/20 11:31:31;;;;;;;13.73;9.75;;;;;;;;;;5053738;28;20506;-74
2023/05/20 11:34:00;;;;;;;15.20;8.82;;;;;;;;;;5053860;28;20028;-76
2023/05/20 11:36:27;;;;;;;13.43;8.02;;;;;;;;;;5053948;28;20035;-76
2023/05/20 11:38:53;;;;;;;16.02;8.27;;;;;;;;;;5053735;28;20100;-75
2023/05/20 11:41:23;;;;;;;13.13;7.50;;;;;;;;;;5053489;28;20062;-75
2023/05/20 11:43:58;;;;;;;12.27;8.40;;;;;;;;;;5053876;28;20048;-76
2023/05/20 11:46:23;;;;;;;14.00;8.30;;;;;;;;;;5053701;28;20480;-76
2023/05/20 11:48:56;;;;;;;17.58;10.32;;;;;;;;;;5053370;28;20040;-77
2023/05/20 11:51:28;;;;;;;11.68;8.05;;;;;;;;;;5054045;28;20036;-75
2023/05/20 11:54:04;;;;;;;13.38;9.05;;;;;;;;;;5053225;28;20083;-76
2023/05/20 11:56:35;;;;;;;14.35;9.30;;;;;;;;;;5035604;28;20111;-75
2023/05/20 11:59:01;;;;;;;14.38;8.88;;;;;;;;;;5035512;28;20024;-77
2023/05/20 12:01:29;;;;;;;13.98;9.40;;;;;;;;;;5053427;28;20037;-75
2023/05/20 12:03:54;;;;;;;10.90;7.47;;;;;;;;;;5053029;28;20128;-75
2023/05/20 12:06:20;;;;;;;13.73;9.88;;;;;;;;;;5053508;28;20123;-76
2023/05/20 12:08:46;;;;;;;8.80;5.80;;;;;;;;;;5035638;28;20024;-76
2023/05/20 12:11:11;;;;;;;12.60;8.38;;;;;;;;;;5035562;28;20139;-77
2023/05/20 12:13:36;;;;;;;8.35;5.95;;;;;;;;;;5052944;28;20040;-77
2023/05/20 12:16:04;;;;;;;12.60;7.97;;;;;;;;;;5035675;28;20036;-76
2023/05/20 12:18:29;;;;;;;13.85;8.75;;;;;;;;;;5052979;28;20102;-76
2023/05/20 12:20:55;;;;;;;14.57;9.98;;;;;;;;;;5053072;28;20079;-76
2023/05/20 12:23:20;;;;;;;12.00;7.37;;;;;;;;;;5052922;28;20021;-74
2023/05/20 12:25:48;;;;;;;14.25;9.07;;;;;;;;;;5052835;28;20308;-75
2023/05/20 12:28:13;;;;;;;13.75;9.13;;;;;;;;;;5052878;28;20025;-76
2023/05/20 12:30:39;;;;;;;16.20;9.33;;;;;;;;;;5052752;28;20025;-76
2023/05/20 12:33:05;;;;;;;11.17;7.87;;;;;;;;;;5035134;28;20254;-76
2023/05/20 12:35:41;;;;;;;13.35;9.20;;;;;;;;;;5052874;28;20307;-75
2023/05/20 12:38:06;;;;;;;12.65;7.22;;;;;;;;;;5053227;28;20031;-76
2023/05/20 12:40:32;;;;;;;14.45;8.48;;;;;;;;;;5052200;28;20395;-76
2023/05/20 12:43:03;;;;;;;11.20;8.13;;;;;;;;;;5033755;28;20451;-78
2023/05/20 12:45:28;;;;;;;12.15;8.00;;;;;;;;;;5052198;28;20052;-75
2023/05/20 12:47:54;;;;;;;14.15;9.43;;;;;;;;;;5052626;28;20033;-76
2023/05/20 12:50:21;;;;;;;11.93;8.32;;;;;;;;;;5034696;28;20025;-76
2023/05/20 12:52:46;;;;;;;10.88;6.63;;;;;;;;;;5052114;28;20033;-74
2023/05/20 12:55:14;;;;;;;13.67;8.63;;;;;;;;;;5052956;28;20392;-76
2023/05/20 12:57:40;;;;;;;10.35;6.85;;;;;;;;;;5035571;28;20258;-76
2023/05/20 13:00:07;;;;;;;12.80;8.30;;;;;;;;;;5056121;28;20388;-76
2023/05/20 13:02:32;;;;;;;14.13;8.95;;;;;;;;;;5038466;28;20539;-77
2023/05/20 13:04:57;;;;;;;11.95;8.52;;;;;;;;;;5057746;28;20033;-77
2023/05/20 13:07:24;;;;;;;11.87;6.53;;;;;;;;;;5057141;28;20443;-75
2023/05/20 13:09:50;;;;;;;9.70;6.25;;;;;;;;;;5039952;28;20691;-77
2023/05/20 13:12:15;;;;;;;11.27;7.70;;;;;;;;;;5057562;28;20029;-77
2023/05/20 13:14:40;;;;;;;13.73;8.87;;;;;;;;;;5058083;28;20029;-77
2023/05/20 13:17:05;;;;;;;10.47;7.37;;;;;;;;;;5056395;28;20254;-77
2023/05/20 13:19:31;;;;;;;12.88;8.52;;;;;;;;;;5055983;28;20277;-77
2023/05/20 13:21:56;;;;;;;12.70;6.87;;;;;;;;;;5039649;28;20116;-77
2023/05/20 13:24:21;;;;;;;13.23;6.87;;;;;;;;;;5056382;28;20298;-76
2023/05/20 13:26:46;;;;;;;12.00;8.23;;;;;;;;;;5056486;28;20327;-76
2023/05/20 13:29:12;;;;;;;21.67;8.43;;;;;;;;;;5056446;28;20586;-77
2023/05/20 13:31:37;;;;;;;12.65;7.38;;;;;;;;;;5056477;28;20032;-77
2023/05/20 13:34:03;;;;;;;8.93;6.32;;;;;;;;;;5037969;28;20027;-77
2023/05/20 13:36:28;;;;;;;10.07;6.20;;;;;;;;;;5037789;28;20031;-77
2023/05/20 13:38:53;;;;;;;14.87;6.50;;;;;;;;;;5055750;28;20021;-77
2023/05/20 13:41:19;;;;;;;10.37;6.93;;;;;;;;;;5055444;28;20261;-77
2023/05/20 13:43:44;;;;;;;13.55;6.60;;;;;;;;;;5037468;28;20663;-76
2023/05/20 13:46:09;;;;;;;11.83;8.00;;;;;;;;;;5055289;28;20036;-77
2023/05/20 13:48:35;;;;;;;14.65;7.35;;;;;;;;;;5055240;28;20277;-77
2023/05/20 13:51:00;;;;;;;10.67;6.93;;;;;;;;;;5055077;28;20021;-77
2023/05/20 13:53:26;;;;;;;13.20;7.07;;;;;;;;;;5055111;28;20261;-76
2023/05/20 13:55:51;;;;;;;10.77;7.60;;;;;;;;;;5056662;28;20060;-73
2023/05/20 13:58:16;;;;;;;9.60;6.70;;;;;;;;;;5057965;28;20116;-75
2023/05/20 14:00:42;;;;;;;13.88;8.20;;;;;;;;;;5059147;28;20025;-78
2023/05/20 14:03:09;;;;;;;14.73;8.88;;;;;;;;;;5058707;28;20024;-79
2023/05/20 14:05:34;;;;;;;14.27;8.25;;;;;;;;;;5038473;28;20024;-77
2023/05/20 14:08:00;;;;;;;11.27;7.50;;;;;;;;;;5058101;28;20032;-77
2023/05/20 14:10:25;;;;;;;11.35;8.00;;;;;;;;;;5059323;28;20025;-78
2023/05/20 14:12:57;;;;;;;11.60;8.23;;;;;;;;;;5055297;28;20064;-76
2023/05/20 14:15:23;;;;;;;9.77;5.72;;;;;;;;;;5055438;28;20043;-77
2023/05/20 14:17:48;;;;;;;13.05;8.70;;;;;;;;;;5055582;28;20028;-77